sensor_id;sensor_type;location;lat;lon;timestamp;P1;durP1;ratioP1;P2;durP2;ratioP2
24567;SDS011;12731;52.182;8.716;2023-08-01T00:00:02;3.30;;;3.00;;
24567;SDS011;12731;52.182;8.716;2023-08-01T00:02:29;3.70;;;3.40;;
24567;SDS011;12731;52.182;8.716;2023-08-01T00:04:56;3.25;;;3.05;;
24567;SDS011;12731;52.182;8.716;2023-08-01T00:07:22;6.63;;;3.72;;
24567;SDS011;12731;52.182;8.716;2023-08-01T00:09:49;4.13;;;3.83;;
24567;SDS011;12731;52.182;8.716;2023-08-01T00:12:16;4.32;;;3.92;;
24567;SDS011;12731;52.182;8.716;2023-08-01T00:14:42;4.00;;;3.70;;
24567;SDS011;12731;52.182;8.716;2023-08-01T00:17:09;7.28;;;3.60;;
24567;SDS011;12731;52.182;8.716;2023-08-01T00:19:36;5.18;;;3.17;;
24567;SDS011;12731;52.182;8.716;2023-08-01T00:22:03;4.70;;;2.67;;
24567;SDS011;12731;52.182;8.716;2023-08-01T00:24:30;3.65;;;2.08;;
24567;SDS011;12731;52.182;8.716;2023-08-01T00:26:56;1.88;;;1.77;;
24567;SDS011;12731;52.182;8.716;2023-08-01T00:29:23;2.45;;;2.20;;
24567;SDS011;12731;52.182;8.716;2023-08-01T00:31:49;2.53;;;2.10;;
24567;SDS011;12731;52.182;8.716;2023-08-01T00:34:16;2.38;;;2.00;;
24567;SDS011;12731;52.182;8.716;2023-08-01T00:36:42;3.38;;;2.38;;
24567;SDS011;12731;52.182;8.716;2023-08-01T00:39:09;2.70;;;2.10;;
24567;SDS011;12731;52.182;8.716;2023-08-01T00:41:35;3.35;;;2.03;;
24567;SDS011;12731;52.182;8.716;2023-08-01T00:44:02;3.13;;;2.20;;
24567;SDS011;12731;52.182;8.716;2023-08-01T00:46:29;2.38;;;2.17;;
24567;SDS011;12731;52.182;8.716;2023-08-01T00:48:55;3.28;;;2.03;;
24567;SDS011;12731;52.182;8.716;2023-08-01T00:51:24;3.10;;;2.10;;
24567;SDS011;12731;52.182;8.716;2023-08-01T00:53:51;3.28;;;2.20;;
24567;SDS011;12731;52.182;8.716;2023-08-01T00:56:17;2.60;;;2.20;;
24567;SDS011;12731;52.182;8.716;2023-08-01T00:58:44;4.05;;;2.15;;
24567;SDS011;12731;52.182;8.716;2023-08-01T01:01:11;2.22;;;2.00;;
24567;SDS011;12731;52.182;8.716;2023-08-01T01:03:39;3.50;;;2.15;;
24567;SDS011;12731;52.182;8.716;2023-08-01T01:08:53;4.05;;;1.80;;
24567;SDS011;12731;52.182;8.716;2023-08-01T01:11:21;2.78;;;1.83;;
24567;SDS011;12731;52.182;8.716;2023-08-01T01:13:48;3.05;;;2.00;;
24567;SDS011;12731;52.182;8.716;2023-08-01T01:16:14;2.22;;;1.85;;
24567;SDS011;12731;52.182;8.716;2023-08-01T01:18:41;4.03;;;1.98;;
24567;SDS011;12731;52.182;8.716;2023-08-01T01:21:07;3.53;;;1.85;;
24567;SDS011;12731;52.182;8.716;2023-08-01T01:23:34;2.05;;;1.50;;
24567;SDS011;12731;52.182;8.716;2023-08-01T01:26:00;2.03;;;1.83;;
24567;SDS011;12731;52.182;8.716;2023-08-01T01:28:28;1.88;;;1.70;;
24567;SDS011;12731;52.182;8.716;2023-08-01T01:30:55;2.95;;;1.90;;
24567;SDS011;12731;52.182;8.716;2023-08-01T01:33:22;2.58;;;1.67;;
24567;SDS011;12731;52.182;8.716;2023-08-01T01:35:49;2.65;;;2.05;;
24567;SDS011;12731;52.182;8.716;2023-08-01T01:38:15;1.77;;;1.52;;
24567;SDS011;12731;52.182;8.716;2023-08-01T01:40:42;2.60;;;2.13;;
24567;SDS011;12731;52.182;8.716;2023-08-01T01:43:08;2.50;;;1.40;;
24567;SDS011;12731;52.182;8.716;2023-08-01T01:45:35;3.38;;;1.60;;
24567;SDS011;12731;52.182;8.716;2023-08-01T01:48:02;1.50;;;1.40;;
24567;SDS011;12731;52.182;8.716;2023-08-01T01:50:29;4.72;;;1.60;;
24567;SDS011;12731;52.182;8.716;2023-08-01T01:52:55;3.38;;;1.67;;
24567;SDS011;12731;52.182;8.716;2023-08-01T01:55:22;2.53;;;1.70;;
24567;SDS011;12731;52.182;8.716;2023-08-01T01:57:48;1.88;;;1.63;;
24567;SDS011;12731;52.182;8.716;2023-08-01T02:00:16;4.18;;;1.80;;
24567;SDS011;12731;52.182;8.716;2023-08-01T02:02:43;1.70;;;1.50;;
24567;SDS011;12731;52.182;8.716;2023-08-01T02:05:09;1.90;;;1.40;;
24567;SDS011;12731;52.182;8.716;2023-08-01T02:07:36;2.50;;;1.95;;
24567;SDS011;12731;52.182;8.716;2023-08-01T02:10:02;2.28;;;1.60;;
24567;SDS011;12731;52.182;8.716;2023-08-01T02:12:29;2.35;;;1.50;;
24567;SDS011;12731;52.182;8.716;2023-08-01T02:15:01;2.13;;;1.80;;
24567;SDS011;12731;52.182;8.716;2023-08-01T02:17:28;2.63;;;1.60;;
24567;SDS011;12731;52.182;8.716;2023-08-01T02:19:54;2.55;;;1.70;;
24567;SDS011;12731;52.182;8.716;2023-08-01T02:22:21;2.97;;;1.40;;
24567;SDS011;12731;52.182;8.716;2023-08-01T02:24:47;2.03;;;1.60;;
24567;SDS011;12731;52.182;8.716;2023-08-01T02:27:14;1.60;;;1.40;;
24567;SDS011;12731;52.182;8.716;2023-08-01T02:29:40;2.65;;;1.90;;
24567;SDS011;12731;52.182;8.716;2023-08-01T02:32:07;2.08;;;1.50;;
24567;SDS011;12731;52.182;8.716;2023-08-01T02:34:33;2.30;;;1.70;;
24567;SDS011;12731;52.182;8.716;2023-08-01T02:37:00;3.00;;;1.80;;
24567;SDS011;12731;52.182;8.716;2023-08-01T02:39:26;1.90;;;1.60;;
24567;SDS011;12731;52.182;8.716;2023-08-01T02:41:53;2.15;;;1.60;;
24567;SDS011;12731;52.182;8.716;2023-08-01T02:44:19;5.75;;;1.75;;
24567;SDS011;12731;52.182;8.716;2023-08-01T02:46:46;2.95;;;1.75;;
24567;SDS011;12731;52.182;8.716;2023-08-01T02:49:12;2.50;;;1.95;;
24567;SDS011;12731;52.182;8.716;2023-08-01T02:51:39;2.05;;;1.83;;
24567;SDS011;12731;52.182;8.716;2023-08-01T02:54:05;1.67;;;1.58;;
24567;SDS011;12731;52.182;8.716;2023-08-01T02:56:32;3.40;;;1.65;;
24567;SDS011;12731;52.182;8.716;2023-08-01T02:58:58;2.50;;;1.65;;
24567;SDS011;12731;52.182;8.716;2023-08-01T03:01:25;2.00;;;1.75;;
24567;SDS011;12731;52.182;8.716;2023-08-01T03:03:51;4.05;;;1.73;;
24567;SDS011;12731;52.182;8.716;2023-08-01T03:06:18;1.50;;;1.33;;
24567;SDS011;12731;52.182;8.716;2023-08-01T03:08:45;2.03;;;1.60;;
24567;SDS011;12731;52.182;8.716;2023-08-01T03:11:11;1.92;;;1.45;;
24567;SDS011;12731;52.182;8.716;2023-08-01T03:13:38;1.75;;;1.48;;
24567;SDS011;12731;52.182;8.716;2023-08-01T03:16:04;2.30;;;1.45;;
24567;SDS011;12731;52.182;8.716;2023-08-01T03:18:31;2.58;;;1.50;;
24567;SDS011;12731;52.182;8.716;2023-08-01T03:20:58;2.42;;;1.60;;
24567;SDS011;12731;52.182;8.716;2023-08-01T03:23:24;2.33;;;1.50;;
24567;SDS011;12731;52.182;8.716;2023-08-01T03:25:51;4.30;;;1.65;;
24567;SDS011;12731;52.182;8.716;2023-08-01T03:28:17;2.40;;;1.77;;
24567;SDS011;12731;52.182;8.716;2023-08-01T03:30:44;4.43;;;1.90;;
24567;SDS011;12731;52.182;8.716;2023-08-01T03:33:11;3.17;;;2.28;;
24567;SDS011;12731;52.182;8.716;2023-08-01T03:35:37;2.90;;;2.13;;
24567;SDS011;12731;52.182;8.716;2023-08-01T03:38:04;4.55;;;2.00;;
24567;SDS011;12731;52.182;8.716;2023-08-01T03:40:30;3.15;;;1.90;;
24567;SDS011;12731;52.182;8.716;2023-08-01T03:42:57;1.80;;;1.70;;
24567;SDS011;12731;52.182;8.716;2023-08-01T03:45:23;4.13;;;2.00;;
24567;SDS011;12731;52.182;8.716;2023-08-01T03:47:50;2.58;;;2.00;;
24567;SDS011;12731;52.182;8.716;2023-08-01T03:50:16;2.15;;;1.83;;
24567;SDS011;12731;52.182;8.716;2023-08-01T03:52:43;4.20;;;2.00;;
24567;SDS011;12731;52.182;8.716;2023-08-01T03:55:10;2.05;;;1.90;;
24567;SDS011;12731;52.182;8.716;2023-08-01T03:57:36;4.80;;;1.70;;
24567;SDS011;12731;52.182;8.716;2023-08-01T04:00:07;2.90;;;2.00;;
24567;SDS011;12731;52.182;8.716;2023-08-01T04:02:40;2.42;;;2.10;;
24567;SDS011;12731;52.182;8.716;2023-08-01T04:05:10;2.13;;;1.92;;
24567;SDS011;12731;52.182;8.716;2023-08-01T04:07:37;2.42;;;2.22;;
24567;SDS011;12731;52.182;8.716;2023-08-01T04:10:04;3.83;;;2.17;;
24567;SDS011;12731;52.182;8.716;2023-08-01T04:12:31;3.10;;;2.50;;
24567;SDS011;12731;52.182;8.716;2023-08-01T04:14:58;2.30;;;2.10;;
24567;SDS011;12731;52.182;8.716;2023-08-01T04:17:25;3.45;;;2.10;;
24567;SDS011;12731;52.182;8.716;2023-08-01T04:19:51;3.28;;;2.50;;
24567;SDS011;12731;52.182;8.716;2023-08-01T04:22:18;3.45;;;3.00;;
24567;SDS011;12731;52.182;8.716;2023-08-01T04:24:45;3.33;;;2.85;;
24567;SDS011;12731;52.182;8.716;2023-08-01T04:27:11;4.80;;;3.05;;
24567;SDS011;12731;52.182;8.716;2023-08-01T04:29:38;3.28;;;2.97;;
24567;SDS011;12731;52.182;8.716;2023-08-01T04:32:05;5.10;;;3.97;;
24567;SDS011;12731;52.182;8.716;2023-08-01T04:34:31;6.72;;;4.05;;
24567;SDS011;12731;52.182;8.716;2023-08-01T04:36:58;4.55;;;4.15;;
24567;SDS011;12731;52.182;8.716;2023-08-01T04:39:25;7.47;;;5.65;;
24567;SDS011;12731;52.182;8.716;2023-08-01T04:41:51;8.18;;;6.00;;
24567;SDS011;12731;52.182;8.716;2023-08-01T04:44:18;7.07;;;5.72;;
24567;SDS011;12731;52.182;8.716;2023-08-01T04:46:44;8.43;;;6.78;;
24567;SDS011;12731;52.182;8.716;2023-08-01T04:49:11;8.98;;;7.10;;
24567;SDS011;12731;52.182;8.716;2023-08-01T04:51:37;8.65;;;7.07;;
24567;SDS011;12731;52.182;8.716;2023-08-01T04:54:04;8.57;;;7.00;;
24567;SDS011;12731;52.182;8.716;2023-08-01T04:56:30;7.47;;;6.78;;
24567;SDS011;12731;52.182;8.716;2023-08-01T04:58:57;7.03;;;6.32;;
24567;SDS011;12731;52.182;8.716;2023-08-01T05:01:23;7.75;;;6.97;;
24567;SDS011;12731;52.182;8.716;2023-08-01T05:03:50;8.00;;;7.20;;
24567;SDS011;12731;52.182;8.716;2023-08-01T05:06:16;7.75;;;6.80;;
24567;SDS011;12731;52.182;8.716;2023-08-01T05:08:43;7.35;;;6.50;;
24567;SDS011;12731;52.182;8.716;2023-08-01T05:11:10;6.95;;;6.10;;
24567;SDS011;12731;52.182;8.716;2023-08-01T05:13:36;7.30;;;6.60;;
24567;SDS011;12731;52.182;8.716;2023-08-01T05:16:03;6.90;;;6.20;;
24567;SDS011;12731;52.182;8.716;2023-08-01T05:18:29;6.53;;;5.93;;
24567;SDS011;12731;52.182;8.716;2023-08-01T05:20:56;7.70;;;6.70;;
24567;SDS011;12731;52.182;8.716;2023-08-01T05:23:23;6.63;;;5.95;;
24567;SDS011;12731;52.182;8.716;2023-08-01T05:25:49;7.78;;;6.68;;
24567;SDS011;12731;52.182;8.716;2023-08-01T05:28:16;7.07;;;6.38;;
24567;SDS011;12731;52.182;8.716;2023-08-01T05:30:42;8.30;;;7.25;;
24567;SDS011;12731;52.182;8.716;2023-08-01T05:33:09;11.88;;;7.20;;
24567;SDS011;12731;52.182;8.716;2023-08-01T05:35:36;9.30;;;7.43;;
24567;SDS011;12731;52.182;8.716;2023-08-01T05:38:02;12.45;;;7.00;;
24567;SDS011;12731;52.182;8.716;2023-08-01T05:40:29;10.05;;;7.43;;
24567;SDS011;12731;52.182;8.716;2023-08-01T05:42:56;9.95;;;6.75;;
24567;SDS011;12731;52.182;8.716;2023-08-01T05:45:22;8.25;;;7.32;;
24567;SDS011;12731;52.182;8.716;2023-08-01T05:47:49;9.23;;;7.90;;
24567;SDS011;12731;52.182;8.716;2023-08-01T05:50:16;11.40;;;7.10;;
24567;SDS011;12731;52.182;8.716;2023-08-01T05:52:42;11.65;;;7.25;;
24567;SDS011;12731;52.182;8.716;2023-08-01T05:55:09;9.70;;;7.53;;
24567;SDS011;12731;52.182;8.716;2023-08-01T05:57:35;12.30;;;7.43;;
24567;SDS011;12731;52.182;8.716;2023-08-01T06:00:02;10.68;;;8.20;;
24567;SDS011;12731;52.182;8.716;2023-08-01T06:02:29;10.73;;;7.40;;
24567;SDS011;12731;52.182;8.716;2023-08-01T06:04:55;10.57;;;7.03;;
24567;SDS011;12731;52.182;8.716;2023-08-01T06:07:22;11.25;;;7.13;;
24567;SDS011;12731;52.182;8.716;2023-08-01T06:09:50;12.13;;;7.30;;
24567;SDS011;12731;52.182;8.716;2023-08-01T06:12:19;9.98;;;7.15;;
24567;SDS011;12731;52.182;8.716;2023-08-01T06:14:46;13.27;;;6.80;;
24567;SDS011;12731;52.182;8.716;2023-08-01T06:17:13;11.00;;;6.20;;
24567;SDS011;12731;52.182;8.716;2023-08-01T06:19:40;11.32;;;6.47;;
24567;SDS011;12731;52.182;8.716;2023-08-01T06:22:07;12.93;;;7.15;;
24567;SDS011;12731;52.182;8.716;2023-08-01T06:24:34;9.95;;;7.25;;
24567;SDS011;12731;52.182;8.716;2023-08-01T06:27:00;13.77;;;6.90;;
24567;SDS011;12731;52.182;8.716;2023-08-01T06:29:27;10.70;;;7.43;;
24567;SDS011;12731;52.182;8.716;2023-08-01T06:31:53;15.10;;;7.20;;
24567;SDS011;12731;52.182;8.716;2023-08-01T06:34:20;11.77;;;8.13;;
24567;SDS011;12731;52.182;8.716;2023-08-01T06:36:47;16.45;;;8.10;;
24567;SDS011;12731;52.182;8.716;2023-08-01T06:39:14;11.27;;;7.28;;
24567;SDS011;12731;52.182;8.716;2023-08-01T06:41:40;13.07;;;7.20;;
24567;SDS011;12731;52.182;8.716;2023-08-01T06:44:07;16.15;;;8.27;;
24567;SDS011;12731;52.182;8.716;2023-08-01T06:46:33;14.32;;;7.57;;
24567;SDS011;12731;52.182;8.716;2023-08-01T06:49:00;16.70;;;7.72;;
24567;SDS011;12731;52.182;8.716;2023-08-01T06:51:27;12.85;;;7.40;;
24567;SDS011;12731;52.182;8.716;2023-08-01T06:53:54;16.75;;;8.45;;
24567;SDS011;12731;52.182;8.716;2023-08-01T06:56:20;11.88;;;7.20;;
24567;SDS011;12731;52.182;8.716;2023-08-01T06:58:48;12.05;;;7.20;;
24567;SDS011;12731;52.182;8.716;2023-08-01T07:01:15;11.82;;;7.03;;
24567;SDS011;12731;52.182;8.716;2023-08-01T07:03:41;14.40;;;7.82;;
24567;SDS011;12731;52.182;8.716;2023-08-01T07:06:08;14.10;;;8.00;;
24567;SDS011;12731;52.182;8.716;2023-08-01T07:08:36;14.27;;;8.20;;
24567;SDS011;12731;52.182;8.716;2023-08-01T07:11:02;12.43;;;7.10;;
24567;SDS011;12731;52.182;8.716;2023-08-01T07:13:29;12.70;;;7.32;;
24567;SDS011;12731;52.182;8.716;2023-08-01T07:15:56;14.45;;;7.85;;
24567;SDS011;12731;52.182;8.716;2023-08-01T07:18:23;14.80;;;8.40;;
24567;SDS011;12731;52.182;8.716;2023-08-01T07:20:58;13.13;;;7.88;;
24567;SDS011;12731;52.182;8.716;2023-08-01T07:23:28;18.00;;;7.63;;
24567;SDS011;12731;52.182;8.716;2023-08-01T07:25:55;12.45;;;7.65;;
24567;SDS011;12731;52.182;8.716;2023-08-01T07:28:21;12.95;;;7.40;;
24567;SDS011;12731;52.182;8.716;2023-08-01T07:30:48;12.52;;;7.20;;
24567;SDS011;12731;52.182;8.716;2023-08-01T07:33:16;10.63;;;6.68;;
24567;SDS011;12731;52.182;8.716;2023-08-01T07:35:42;12.32;;;6.93;;
24567;SDS011;12731;52.182;8.716;2023-08-01T07:38:09;9.52;;;6.55;;
24567;SDS011;12731;52.182;8.716;2023-08-01T07:40:36;9.70;;;6.40;;
24567;SDS011;12731;52.182;8.716;2023-08-01T07:43:03;11.50;;;6.97;;
24567;SDS011;12731;52.182;8.716;2023-08-01T07:45:31;11.35;;;6.60;;
24567;SDS011;12731;52.182;8.716;2023-08-01T07:48:00;10.93;;;6.18;;
24567;SDS011;12731;52.182;8.716;2023-08-01T07:50:27;7.22;;;5.13;;
24567;SDS011;12731;52.182;8.716;2023-08-01T07:52:53;6.13;;;3.97;;
24567;SDS011;12731;52.182;8.716;2023-08-01T07:55:20;6.57;;;4.38;;
24567;SDS011;12731;52.182;8.716;2023-08-01T07:57:47;7.28;;;4.05;;
24567;SDS011;12731;52.182;8.716;2023-08-01T08:00:14;5.07;;;3.63;;
24567;SDS011;12731;52.182;8.716;2023-08-01T08:02:41;7.28;;;4.20;;
24567;SDS011;12731;52.182;8.716;2023-08-01T08:05:08;4.70;;;3.30;;
24567;SDS011;12731;52.182;8.716;2023-08-01T08:07:38;7.03;;;3.60;;
24567;SDS011;12731;52.182;8.716;2023-08-01T08:10:05;6.15;;;3.55;;
24567;SDS011;12731;52.182;8.716;2023-08-01T08:12:32;5.25;;;3.70;;
24567;SDS011;12731;52.182;8.716;2023-08-01T08:14:59;5.57;;;3.72;;
24567;SDS011;12731;52.182;8.716;2023-08-01T08:17:25;4.50;;;2.88;;
24567;SDS011;12731;52.182;8.716;2023-08-01T08:19:52;4.10;;;3.30;;
24567;SDS011;12731;52.182;8.716;2023-08-01T08:22:18;7.60;;;3.67;;
24567;SDS011;12731;52.182;8.716;2023-08-01T08:24:45;8.30;;;3.53;;
24567;SDS011;12731;52.182;8.716;2023-08-01T08:27:12;5.63;;;3.85;;
24567;SDS011;12731;52.182;8.716;2023-08-01T08:29:39;6.35;;;3.55;;
24567;SDS011;12731;52.182;8.716;2023-08-01T08:32:06;9.63;;;3.97;;
24567;SDS011;12731;52.182;8.716;2023-08-01T08:34:33;6.70;;;4.10;;
24567;SDS011;12731;52.182;8.716;2023-08-01T08:36:59;7.50;;;3.85;;
24567;SDS011;12731;52.182;8.716;2023-08-01T08:39:26;6.22;;;4.13;;
24567;SDS011;12731;52.182;8.716;2023-08-01T08:41:52;6.28;;;4.35;;
24567;SDS011;12731;52.182;8.716;2023-08-01T08:44:19;7.97;;;4.13;;
24567;SDS011;12731;52.182;8.716;2023-08-01T08:46:51;7.28;;;3.83;;
24567;SDS011;12731;52.182;8.716;2023-08-01T08:49:19;8.25;;;4.28;;
24567;SDS011;12731;52.182;8.716;2023-08-01T08:51:47;6.57;;;3.30;;
24567;SDS011;12731;52.182;8.716;2023-08-01T08:54:15;8.98;;;3.53;;
24567;SDS011;12731;52.182;8.716;2023-08-01T08:56:42;7.18;;;3.85;;
24567;SDS011;12731;52.182;8.716;2023-08-01T08:59:09;7.72;;;3.63;;
24567;SDS011;12731;52.182;8.716;2023-08-01T09:01:36;7.95;;;3.97;;
24567;SDS011;12731;52.182;8.716;2023-08-01T09:04:04;7.60;;;3.50;;
24567;SDS011;12731;52.182;8.716;2023-08-01T09:06:40;6.75;;;3.60;;
24567;SDS011;12731;52.182;8.716;2023-08-01T09:09:14;7.53;;;3.45;;
24567;SDS011;12731;52.182;8.716;2023-08-01T09:11:48;9.45;;;4.05;;
24567;SDS011;12731;52.182;8.716;2023-08-01T09:14:16;9.43;;;3.63;;
24567;SDS011;12731;52.182;8.716;2023-08-01T09:16:43;5.03;;;2.70;;
24567;SDS011;12731;52.182;8.716;2023-08-01T09:19:11;7.07;;;3.03;;
24567;SDS011;12731;52.182;8.716;2023-08-01T09:21:39;7.45;;;2.92;;
24567;SDS011;12731;52.182;8.716;2023-08-01T09:24:13;6.53;;;2.80;;
24567;SDS011;12731;52.182;8.716;2023-08-01T09:26:41;5.43;;;2.50;;
24567;SDS011;12731;52.182;8.716;2023-08-01T09:29:09;7.03;;;2.70;;
24567;SDS011;12731;52.182;8.716;2023-08-01T09:31:36;8.32;;;3.17;;
24567;SDS011;12731;52.182;8.716;2023-08-01T09:34:05;6.28;;;2.78;;
24567;SDS011;12731;52.182;8.716;2023-08-01T09:36:32;5.50;;;2.75;;
24567;SDS011;12731;52.182;8.716;2023-08-01T09:39:00;4.90;;;2.65;;
24567;SDS011;12731;52.182;8.716;2023-08-01T09:41:28;4.90;;;2.60;;
24567;SDS011;12731;52.182;8.716;2023-08-01T09:43:56;6.05;;;2.50;;
24567;SDS011;12731;52.182;8.716;2023-08-01T09:46:23;5.40;;;2.55;;
24567;SDS011;12731;52.182;8.716;2023-08-01T09:48:50;5.55;;;2.30;;
24567;SDS011;12731;52.182;8.716;2023-08-01T09:51:17;6.10;;;2.80;;
24567;SDS011;12731;52.182;8.716;2023-08-01T09:53:49;5.13;;;2.25;;
24567;SDS011;12731;52.182;8.716;2023-08-01T09:56:18;6.03;;;2.65;;
24567;SDS011;12731;52.182;8.716;2023-08-01T09:58:46;5.47;;;2.88;;
24567;SDS011;12731;52.182;8.716;2023-08-01T10:01:14;9.07;;;3.40;;
24567;SDS011;12731;52.182;8.716;2023-08-01T10:03:44;5.00;;;2.75;;
24567;SDS011;12731;52.182;8.716;2023-08-01T10:06:13;8.60;;;3.40;;
24567;SDS011;12731;52.182;8.716;2023-08-01T10:08:46;4.65;;;2.53;;
24567;SDS011;12731;52.182;8.716;2023-08-01T10:11:17;5.55;;;2.78;;
24567;SDS011;12731;52.182;8.716;2023-08-01T10:13:45;6.35;;;3.03;;
24567;SDS011;12731;52.182;8.716;2023-08-01T10:16:13;6.82;;;3.13;;
24567;SDS011;12731;52.182;8.716;2023-08-01T10:18:41;5.47;;;3.20;;
24567;SDS011;12731;52.182;8.716;2023-08-01T10:21:10;4.55;;;2.90;;
24567;SDS011;12731;52.182;8.716;2023-08-01T10:23:38;5.35;;;2.72;;
24567;SDS011;12731;52.182;8.716;2023-08-01T10:26:06;4.30;;;2.42;;
24567;SDS011;12731;52.182;8.716;2023-08-01T10:28:34;4.35;;;3.03;;
24567;SDS011;12731;52.182;8.716;2023-08-01T10:31:09;4.20;;;3.15;;
24567;SDS011;12731;52.182;8.716;2023-08-01T10:33:40;7.97;;;3.80;;
24567;SDS011;12731;52.182;8.716;2023-08-01T10:36:15;5.00;;;3.53;;
24567;SDS011;12731;52.182;8.716;2023-08-01T10:38:46;6.60;;;3.30;;
24567;SDS011;12731;52.182;8.716;2023-08-01T10:44:12;10.18;;;3.47;;
24567;SDS011;12731;52.182;8.716;2023-08-01T10:49:16;6.50;;;3.15;;
24567;SDS011;12731;52.182;8.716;2023-08-01T10:51:44;4.75;;;2.95;;
24567;SDS011;12731;52.182;8.716;2023-08-01T10:54:23;7.03;;;2.95;;
24567;SDS011;12731;52.182;8.716;2023-08-01T10:56:51;5.47;;;2.97;;
24567;SDS011;12731;52.182;8.716;2023-08-01T10:59:20;5.15;;;3.10;;
24567;SDS011;12731;52.182;8.716;2023-08-01T11:01:48;4.90;;;2.80;;
24567;SDS011;12731;52.182;8.716;2023-08-01T11:04:16;5.18;;;2.78;;
24567;SDS011;12731;52.182;8.716;2023-08-01T11:06:48;7.10;;;3.33;;
24567;SDS011;12731;52.182;8.716;2023-08-01T11:09:20;5.18;;;3.08;;
24567;SDS011;12731;52.182;8.716;2023-08-01T11:11:48;9.02;;;4.03;;
24567;SDS011;12731;52.182;8.716;2023-08-01T11:14:16;7.80;;;3.70;;
24567;SDS011;12731;52.182;8.716;2023-08-01T11:16:43;6.50;;;3.47;;
24567;SDS011;12731;52.182;8.716;2023-08-01T11:19:17;7.40;;;4.22;;
24567;SDS011;12731;52.182;8.716;2023-08-01T11:21:47;6.47;;;4.00;;
24567;SDS011;12731;52.182;8.716;2023-08-01T11:24:14;7.90;;;3.97;;
24567;SDS011;12731;52.182;8.716;2023-08-01T11:26:45;6.47;;;3.58;;
24567;SDS011;12731;52.182;8.716;2023-08-01T11:29:13;6.15;;;3.28;;
24567;SDS011;12731;52.182;8.716;2023-08-01T11:31:41;7.40;;;3.72;;
24567;SDS011;12731;52.182;8.716;2023-08-01T11:34:12;7.45;;;3.63;;
24567;SDS011;12731;52.182;8.716;2023-08-01T11:36:39;7.40;;;3.25;;
24567;SDS011;12731;52.182;8.716;2023-08-01T11:39:06;5.35;;;3.10;;
24567;SDS011;12731;52.182;8.716;2023-08-01T11:41:32;7.55;;;3.20;;
24567;SDS011;12731;52.182;8.716;2023-08-01T11:44:02;8.13;;;3.03;;
24567;SDS011;12731;52.182;8.716;2023-08-01T11:46:30;4.03;;;3.05;;
24567;SDS011;12731;52.182;8.716;2023-08-01T11:48:59;5.43;;;2.83;;
24567;SDS011;12731;52.182;8.716;2023-08-01T11:51:27;5.07;;;3.38;;
24567;SDS011;12731;52.182;8.716;2023-08-01T11:53:58;8.50;;;3.40;;
24567;SDS011;12731;52.182;8.716;2023-08-01T11:56:30;7.00;;;3.05;;
24567;SDS011;12731;52.182;8.716;2023-08-01T11:58:57;6.38;;;3.55;;
24567;SDS011;12731;52.182;8.716;2023-08-01T12:01:25;6.95;;;3.63;;
24567;SDS011;12731;52.182;8.716;2023-08-01T12:03:52;5.40;;;3.28;;
24567;SDS011;12731;52.182;8.716;2023-08-01T12:06:20;7.53;;;3.05;;
24567;SDS011;12731;52.182;8.716;2023-08-01T12:08:52;4.78;;;2.70;;
24567;SDS011;12731;52.182;8.716;2023-08-01T12:13:46;8.95;;;2.95;;
24567;SDS011;12731;52.182;8.716;2023-08-01T12:16:13;6.80;;;2.70;;
24567;SDS011;12731;52.182;8.716;2023-08-01T12:18:43;6.22;;;2.78;;
24567;SDS011;12731;52.182;8.716;2023-08-01T12:21:26;4.03;;;2.45;;
24567;SDS011;12731;52.182;8.716;2023-08-01T12:23:53;5.22;;;2.63;;
24567;SDS011;12731;52.182;8.716;2023-08-01T12:26:19;3.53;;;2.28;;
24567;SDS011;12731;52.182;8.716;2023-08-01T12:28:46;4.97;;;2.05;;
24567;SDS011;12731;52.182;8.716;2023-08-01T12:31:16;5.47;;;2.10;;
24567;SDS011;12731;52.182;8.716;2023-08-01T12:33:46;2.70;;;1.60;;
24567;SDS011;12731;52.182;8.716;2023-08-01T12:36:14;5.15;;;2.25;;
24567;SDS011;12731;52.182;8.716;2023-08-01T12:38:41;4.13;;;2.00;;
24567;SDS011;12731;52.182;8.716;2023-08-01T12:41:07;3.80;;;1.80;;
24567;SDS011;12731;52.182;8.716;2023-08-01T12:43:34;6.43;;;2.40;;
24567;SDS011;12731;52.182;8.716;2023-08-01T12:46:01;3.30;;;1.80;;
24567;SDS011;12731;52.182;8.716;2023-08-01T12:48:28;4.35;;;1.75;;
24567;SDS011;12731;52.182;8.716;2023-08-01T12:50:54;4.93;;;2.03;;
24567;SDS011;12731;52.182;8.716;2023-08-01T12:53:21;4.82;;;1.90;;
24567;SDS011;12731;52.182;8.716;2023-08-01T12:55:49;5.97;;;2.22;;
24567;SDS011;12731;52.182;8.716;2023-08-01T12:58:16;5.00;;;1.80;;
24567;SDS011;12731;52.182;8.716;2023-08-01T13:00:43;3.65;;;1.90;;
24567;SDS011;12731;52.182;8.716;2023-08-01T13:03:10;3.38;;;1.88;;
24567;SDS011;12731;52.182;8.716;2023-08-01T13:05:38;5.40;;;1.98;;
24567;SDS011;12731;52.182;8.716;2023-08-01T13:08:06;7.72;;;2.72;;
24567;SDS011;12731;52.182;8.716;2023-08-01T13:10:34;2.42;;;1.02;;
24567;SDS011;12731;52.182;8.716;2023-08-01T13:13:01;1.35;;;0.85;;
24567;SDS011;12731;52.182;8.716;2023-08-01T13:15:28;2.28;;;0.82;;
24567;SDS011;12731;52.182;8.716;2023-08-01T13:17:55;1.35;;;0.63;;
24567;SDS011;12731;52.182;8.716;2023-08-01T13:20:22;1.73;;;0.70;;
24567;SDS011;12731;52.182;8.716;2023-08-01T13:22:49;1.70;;;0.82;;
24567;SDS011;12731;52.182;8.716;2023-08-01T13:25:17;1.92;;;0.90;;
24567;SDS011;12731;52.182;8.716;2023-08-01T13:27:44;2.17;;;0.90;;
24567;SDS011;12731;52.182;8.716;2023-08-01T13:30:10;1.55;;;0.90;;
24567;SDS011;12731;52.182;8.716;2023-08-01T13:32:40;2.58;;;1.00;;
24567;SDS011;12731;52.182;8.716;2023-08-01T13:35:07;2.10;;;1.10;;
24567;SDS011;12731;52.182;8.716;2023-08-01T13:37:34;2.25;;;1.17;;
24567;SDS011;12731;52.182;8.716;2023-08-01T13:40:01;3.67;;;1.20;;
24567;SDS011;12731;52.182;8.716;2023-08-01T13:42:29;3.45;;;1.42;;
24567;SDS011;12731;52.182;8.716;2023-08-01T13:44:56;3.65;;;1.27;;
24567;SDS011;12731;52.182;8.716;2023-08-01T13:47:23;2.20;;;0.90;;
24567;SDS011;12731;52.182;8.716;2023-08-01T13:49:50;2.55;;;1.10;;
24567;SDS011;12731;52.182;8.716;2023-08-01T13:52:17;2.75;;;1.10;;
24567;SDS011;12731;52.182;8.716;2023-08-01T13:54:43;3.17;;;1.10;;
24567;SDS011;12731;52.182;8.716;2023-08-01T13:57:10;1.98;;;1.23;;
24567;SDS011;12731;52.182;8.716;2023-08-01T13:59:37;2.38;;;1.10;;
24567;SDS011;12731;52.182;8.716;2023-08-01T14:02:03;3.35;;;1.23;;
24567;SDS011;12731;52.182;8.716;2023-08-01T14:04:32;1.95;;;1.02;;
24567;SDS011;12731;52.182;8.716;2023-08-01T14:06:59;3.78;;;1.25;;
24567;SDS011;12731;52.182;8.716;2023-08-01T14:09:25;4.50;;;1.33;;
24567;SDS011;12731;52.182;8.716;2023-08-01T14:11:52;4.32;;;1.63;;
24567;SDS011;12731;52.182;8.716;2023-08-01T14:14:18;2.20;;;1.13;;
24567;SDS011;12731;52.182;8.716;2023-08-01T14:16:45;2.88;;;1.35;;
24567;SDS011;12731;52.182;8.716;2023-08-01T14:19:11;2.88;;;1.27;;
24567;SDS011;12731;52.182;8.716;2023-08-01T14:21:38;4.18;;;1.85;;
24567;SDS011;12731;52.182;8.716;2023-08-01T14:24:04;2.78;;;1.30;;
24567;SDS011;12731;52.182;8.716;2023-08-01T14:26:31;4.18;;;1.40;;
24567;SDS011;12731;52.182;8.716;2023-08-01T14:28:58;2.10;;;1.35;;
24567;SDS011;12731;52.182;8.716;2023-08-01T14:31:24;4.95;;;1.42;;
24567;SDS011;12731;52.182;8.716;2023-08-01T14:33:51;3.33;;;1.10;;
24567;SDS011;12731;52.182;8.716;2023-08-01T14:36:17;5.78;;;1.58;;
24567;SDS011;12731;52.182;8.716;2023-08-01T14:38:44;2.97;;;1.17;;
24567;SDS011;12731;52.182;8.716;2023-08-01T14:41:11;2.65;;;1.30;;
24567;SDS011;12731;52.182;8.716;2023-08-01T14:43:57;6.05;;;1.50;;
24567;SDS011;12731;52.182;8.716;2023-08-01T14:46:24;3.22;;;1.38;;
24567;SDS011;12731;52.182;8.716;2023-08-01T14:48:50;3.83;;;1.73;;
24567;SDS011;12731;52.182;8.716;2023-08-01T14:51:17;4.35;;;1.38;;
24567;SDS011;12731;52.182;8.716;2023-08-01T14:53:43;3.42;;;1.38;;
24567;SDS011;12731;52.182;8.716;2023-08-01T14:56:10;5.05;;;2.38;;